Kernersville, North Carolina
Current Conditions -  °F | °C
As of 12:33 AM on Thursday 27 Nov 2014 (Local Time) from KGSO Reporting Station
Broken Clouds Broken Clouds  
Wind Chill: 39°   Ceiling: 4500
Heat Index: 39°   Visibility: 10mi
Dew Point: 39°   Wind: 3mph
Humidity: 100%   Direction: 120°ESE
Pressure: 30.02"   Gusts: NA
Location:  36.12°N, 80.07°W
Report Text: KGSO 270533Z 12003KT 10SM SCT020 BKN045 BKN110 04/04 A3002 RMK AO2 RAE14 P0001
Loading
Personal Weather Stations






























Interactive Weather Map New forecast layout! Learn more

10-Day Weather Forecast

Advertisements
Track Severe Weather on mobile